sensor_id;sensor_type;location;lat;lon;timestamp;P1;durP1;ratioP1;P2;durP2;ratioP2
46597;SDS011;32318;48.858;8.252;2024-01-30T00:00:44;16.20;;;7.75;;
46597;SDS011;32318;48.858;8.252;2024-01-30T00:08:44;23.20;;;9.50;;
46597;SDS011;32318;48.858;8.252;2024-01-30T00:16:46;27.00;;;9.43;;
46597;SDS011;32318;48.858;8.252;2024-01-30T00:24:46;20.40;;;9.55;;
46597;SDS011;32318;48.858;8.252;2024-01-30T00:32:47;25.02;;;10.07;;
46597;SDS011;32318;48.858;8.252;2024-01-30T00:40:47;20.35;;;9.32;;
46597;SDS011;32318;48.858;8.252;2024-01-30T00:48:47;18.77;;;9.07;;
46597;SDS011;32318;48.858;8.252;2024-01-30T00:56:48;23.73;;;10.23;;
46597;SDS011;32318;48.858;8.252;2024-01-30T01:04:48;23.20;;;10.65;;
46597;SDS011;32318;48.858;8.252;2024-01-30T01:12:48;27.73;;;11.02;;
46597;SDS011;32318;48.858;8.252;2024-01-30T01:20:49;23.67;;;11.05;;
46597;SDS011;32318;48.858;8.252;2024-01-30T01:28:49;26.20;;;10.20;;
46597;SDS011;32318;48.858;8.252;2024-01-30T01:36:50;25.98;;;9.45;;
46597;SDS011;32318;48.858;8.252;2024-01-30T01:44:51;23.67;;;10.20;;
46597;SDS011;32318;48.858;8.252;2024-01-30T01:52:51;22.55;;;9.75;;
46597;SDS011;32318;48.858;8.252;2024-01-30T02:00:52;24.80;;;9.18;;
46597;SDS011;32318;48.858;8.252;2024-01-30T02:08:53;21.73;;;7.43;;
46597;SDS011;32318;48.858;8.252;2024-01-30T02:16:54;20.80;;;7.03;;
46597;SDS011;32318;48.858;8.252;2024-01-30T02:24:54;21.35;;;6.85;;
46597;SDS011;32318;48.858;8.252;2024-01-30T02:32:55;19.48;;;6.45;;
46597;SDS011;32318;48.858;8.252;2024-01-30T02:40:55;13.43;;;5.72;;
46597;SDS011;32318;48.858;8.252;2024-01-30T02:48:58;17.30;;;4.93;;
46597;SDS011;32318;48.858;8.252;2024-01-30T02:56:58;8.82;;;4.47;;
46597;SDS011;32318;48.858;8.252;2024-01-30T03:04:59;11.95;;;5.10;;
46597;SDS011;32318;48.858;8.252;2024-01-30T03:12:59;11.02;;;4.97;;
46597;SDS011;32318;48.858;8.252;2024-01-30T03:21:00;17.45;;;5.65;;
46597;SDS011;32318;48.858;8.252;2024-01-30T03:29:01;10.52;;;5.10;;
46597;SDS011;32318;48.858;8.252;2024-01-30T03:37:01;11.82;;;4.53;;
46597;SDS011;32318;48.858;8.252;2024-01-30T03:45:01;11.65;;;4.90;;
46597;SDS011;32318;48.858;8.252;2024-01-30T03:53:02;11.30;;;4.97;;
46597;SDS011;32318;48.858;8.252;2024-01-30T04:01:03;9.55;;;4.10;;
46597;SDS011;32318;48.858;8.252;2024-01-30T04:09:03;9.77;;;3.97;;
46597;SDS011;32318;48.858;8.252;2024-01-30T04:17:04;10.23;;;4.63;;
46597;SDS011;32318;48.858;8.252;2024-01-30T04:25:04;12.23;;;4.70;;
46597;SDS011;32318;48.858;8.252;2024-01-30T04:33:04;10.90;;;4.30;;
46597;SDS011;32318;48.858;8.252;2024-01-30T04:41:05;14.65;;;4.75;;
46597;SDS011;32318;48.858;8.252;2024-01-30T04:49:05;8.90;;;4.70;;
46597;SDS011;32318;48.858;8.252;2024-01-30T04:57:07;11.02;;;4.40;;
46597;SDS011;32318;48.858;8.252;2024-01-30T05:05:09;13.30;;;4.85;;
46597;SDS011;32318;48.858;8.252;2024-01-30T05:13:10;14.40;;;5.28;;
46597;SDS011;32318;48.858;8.252;2024-01-30T05:21:13;14.82;;;6.47;;
46597;SDS011;32318;48.858;8.252;2024-01-30T05:29:15;13.63;;;5.53;;
46597;SDS011;32318;48.858;8.252;2024-01-30T05:37:15;14.80;;;5.72;;
46597;SDS011;32318;48.858;8.252;2024-01-30T05:45:16;13.48;;;5.13;;
46597;SDS011;32318;48.858;8.252;2024-01-30T05:53:17;13.80;;;5.38;;
46597;SDS011;32318;48.858;8.252;2024-01-30T06:01:17;10.15;;;4.80;;
46597;SDS011;32318;48.858;8.252;2024-01-30T06:09:17;21.45;;;6.82;;
46597;SDS011;32318;48.858;8.252;2024-01-30T06:17:18;40.47;;;12.98;;
46597;SDS011;32318;48.858;8.252;2024-01-30T06:25:18;23.42;;;9.38;;
46597;SDS011;32318;48.858;8.252;2024-01-30T06:33:18;18.27;;;7.35;;
46597;SDS011;32318;48.858;8.252;2024-01-30T06:41:18;17.83;;;7.05;;
46597;SDS011;32318;48.858;8.252;2024-01-30T06:49:19;15.52;;;7.18;;
46597;SDS011;32318;48.858;8.252;2024-01-30T06:57:19;19.52;;;6.78;;
46597;SDS011;32318;48.858;8.252;2024-01-30T07:05:20;18.38;;;8.35;;
46597;SDS011;32318;48.858;8.252;2024-01-30T07:13:21;21.33;;;8.77;;
46597;SDS011;32318;48.858;8.252;2024-01-30T07:21:22;32.33;;;13.13;;
46597;SDS011;32318;48.858;8.252;2024-01-30T07:29:27;29.17;;;12.98;;
46597;SDS011;32318;48.858;8.252;2024-01-30T07:37:28;37.78;;;14.20;;
46597;SDS011;32318;48.858;8.252;2024-01-30T07:45:28;44.78;;;14.93;;
46597;SDS011;32318;48.858;8.252;2024-01-30T07:53:32;26.05;;;12.50;;
46597;SDS011;32318;48.858;8.252;2024-01-30T08:01:32;29.27;;;11.90;;
46597;SDS011;32318;48.858;8.252;2024-01-30T08:09:42;25.02;;;10.63;;
46597;SDS011;32318;48.858;8.252;2024-01-30T08:17:42;30.13;;;12.05;;
46597;SDS011;32318;48.858;8.252;2024-01-30T08:25:44;71.60;;;22.77;;
46597;SDS011;32318;48.858;8.252;2024-01-30T08:33:45;58.95;;;22.08;;
46597;SDS011;32318;48.858;8.252;2024-01-30T08:41:45;42.15;;;16.95;;
46597;SDS011;32318;48.858;8.252;2024-01-30T08:49:45;44.53;;;18.95;;
46597;SDS011;32318;48.858;8.252;2024-01-30T08:57:46;51.53;;;20.90;;
46597;SDS011;32318;48.858;8.252;2024-01-30T09:05:46;27.10;;;12.07;;
46597;SDS011;32318;48.858;8.252;2024-01-30T09:13:46;29.88;;;13.20;;
46597;SDS011;32318;48.858;8.252;2024-01-30T09:21:46;37.05;;;16.63;;
46597;SDS011;32318;48.858;8.252;2024-01-30T09:29:47;45.28;;;18.08;;
46597;SDS011;32318;48.858;8.252;2024-01-30T09:37:47;46.47;;;20.10;;
46597;SDS011;32318;48.858;8.252;2024-01-30T09:45:48;35.67;;;14.32;;
46597;SDS011;32318;48.858;8.252;2024-01-30T09:53:50;24.92;;;11.98;;
46597;SDS011;32318;48.858;8.252;2024-01-30T10:01:50;23.02;;;10.82;;
46597;SDS011;32318;48.858;8.252;2024-01-30T10:09:52;27.25;;;12.85;;
46597;SDS011;32318;48.858;8.252;2024-01-30T10:17:53;35.80;;;13.70;;
46597;SDS011;32318;48.858;8.252;2024-01-30T10:25:53;26.50;;;11.77;;
46597;SDS011;32318;48.858;8.252;2024-01-30T10:33:54;25.38;;;11.27;;
46597;SDS011;32318;48.858;8.252;2024-01-30T10:41:54;24.17;;;12.05;;
46597;SDS011;32318;48.858;8.252;2024-01-30T10:50:00;29.23;;;10.80;;
46597;SDS011;32318;48.858;8.252;2024-01-30T10:58:01;24.73;;;10.55;;
46597;SDS011;32318;48.858;8.252;2024-01-30T11:06:02;30.85;;;11.38;;
46597;SDS011;32318;48.858;8.252;2024-01-30T11:14:03;29.55;;;13.05;;
46597;SDS011;32318;48.858;8.252;2024-01-30T11:22:06;32.33;;;12.98;;
46597;SDS011;32318;48.858;8.252;2024-01-30T11:30:07;22.33;;;11.23;;
46597;SDS011;32318;48.858;8.252;2024-01-30T11:38:09;33.35;;;13.18;;
46597;SDS011;32318;48.858;8.252;2024-01-30T11:46:11;35.47;;;12.15;;
46597;SDS011;32318;48.858;8.252;2024-01-30T11:54:14;30.27;;;11.80;;
46597;SDS011;32318;48.858;8.252;2024-01-30T12:02:18;23.55;;;11.63;;
46597;SDS011;32318;48.858;8.252;2024-01-30T12:10:18;26.60;;;11.60;;
46597;SDS011;32318;48.858;8.252;2024-01-30T12:18:19;25.70;;;11.10;;
46597;SDS011;32318;48.858;8.252;2024-01-30T12:26:20;23.75;;;9.88;;
46597;SDS011;32318;48.858;8.252;2024-01-30T12:34:20;28.08;;;11.30;;
46597;SDS011;32318;48.858;8.252;2024-01-30T12:42:21;25.77;;;11.93;;
46597;SDS011;32318;48.858;8.252;2024-01-30T12:50:24;25.40;;;12.30;;
46597;SDS011;32318;48.858;8.252;2024-01-30T12:58:29;39.20;;;14.38;;
46597;SDS011;32318;48.858;8.252;2024-01-30T13:06:29;34.97;;;14.48;;
46597;SDS011;32318;48.858;8.252;2024-01-30T13:14:29;35.85;;;14.75;;
46597;SDS011;32318;48.858;8.252;2024-01-30T13:22:29;39.08;;;15.13;;
46597;SDS011;32318;48.858;8.252;2024-01-30T13:30:30;38.03;;;16.48;;
46597;SDS011;32318;48.858;8.252;2024-01-30T13:38:30;34.33;;;15.02;;
46597;SDS011;32318;48.858;8.252;2024-01-30T13:46:30;39.60;;;13.10;;
46597;SDS011;32318;48.858;8.252;2024-01-30T13:54:31;27.43;;;12.37;;
46597;SDS011;32318;48.858;8.252;2024-01-30T14:02:32;34.83;;;12.90;;
46597;SDS011;32318;48.858;8.252;2024-01-30T14:10:32;31.55;;;12.98;;
46597;SDS011;32318;48.858;8.252;2024-01-30T14:18:32;29.65;;;12.70;;
46597;SDS011;32318;48.858;8.252;2024-01-30T14:26:33;25.42;;;11.75;;
46597;SDS011;32318;48.858;8.252;2024-01-30T14:34:33;34.33;;;11.35;;
46597;SDS011;32318;48.858;8.252;2024-01-30T14:42:33;23.85;;;11.65;;
46597;SDS011;32318;48.858;8.252;2024-01-30T14:50:34;30.42;;;10.70;;
46597;SDS011;32318;48.858;8.252;2024-01-30T14:58:35;27.63;;;11.02;;
46597;SDS011;32318;48.858;8.252;2024-01-30T15:06:35;34.88;;;15.27;;
46597;SDS011;32318;48.858;8.252;2024-01-30T15:14:36;35.50;;;12.30;;
46597;SDS011;32318;48.858;8.252;2024-01-30T15:22:36;27.85;;;11.63;;
46597;SDS011;32318;48.858;8.252;2024-01-30T15:30:37;35.58;;;13.05;;
46597;SDS011;32318;48.858;8.252;2024-01-30T15:38:37;28.75;;;12.55;;
46597;SDS011;32318;48.858;8.252;2024-01-30T15:46:37;27.42;;;11.82;;
46597;SDS011;32318;48.858;8.252;2024-01-30T15:54:38;26.08;;;11.27;;
46597;SDS011;32318;48.858;8.252;2024-01-30T16:02:39;29.50;;;11.57;;
46597;SDS011;32318;48.858;8.252;2024-01-30T16:10:39;56.05;;;22.85;;
46597;SDS011;32318;48.858;8.252;2024-01-30T16:18:39;31.83;;;13.50;;
46597;SDS011;32318;48.858;8.252;2024-01-30T16:26:40;28.77;;;12.00;;
46597;SDS011;32318;48.858;8.252;2024-01-30T16:34:40;36.83;;;12.25;;
46597;SDS011;32318;48.858;8.252;2024-01-30T16:42:40;23.67;;;9.82;;
46597;SDS011;32318;48.858;8.252;2024-01-30T16:50:41;23.42;;;11.15;;
46597;SDS011;32318;48.858;8.252;2024-01-30T16:58:41;23.25;;;10.35;;
46597;SDS011;32318;48.858;8.252;2024-01-30T17:06:42;25.05;;;11.63;;
46597;SDS011;32318;48.858;8.252;2024-01-30T17:14:42;40.53;;;13.73;;
46597;SDS011;32318;48.858;8.252;2024-01-30T17:22:42;21.45;;;9.48;;
46597;SDS011;32318;48.858;8.252;2024-01-30T17:30:43;31.27;;;12.00;;
46597;SDS011;32318;48.858;8.252;2024-01-30T17:38:43;22.77;;;10.82;;
46597;SDS011;32318;48.858;8.252;2024-01-30T17:46:44;21.83;;;10.13;;
46597;SDS011;32318;48.858;8.252;2024-01-30T17:54:44;26.75;;;12.07;;
46597;SDS011;32318;48.858;8.252;2024-01-30T18:02:44;29.85;;;12.90;;
46597;SDS011;32318;48.858;8.252;2024-01-30T18:10:44;33.35;;;13.90;;
46597;SDS011;32318;48.858;8.252;2024-01-30T18:18:45;29.83;;;14.68;;
46597;SDS011;32318;48.858;8.252;2024-01-30T18:26:45;37.15;;;17.58;;
46597;SDS011;32318;48.858;8.252;2024-01-30T18:34:45;39.57;;;16.70;;
46597;SDS011;32318;48.858;8.252;2024-01-30T18:42:46;38.92;;;17.98;;
46597;SDS011;32318;48.858;8.252;2024-01-30T18:50:46;53.30;;;18.25;;
46597;SDS011;32318;48.858;8.252;2024-01-30T18:58:47;56.58;;;19.55;;
46597;SDS011;32318;48.858;8.252;2024-01-30T19:06:47;37.97;;;16.08;;
46597;SDS011;32318;48.858;8.252;2024-01-30T19:14:51;36.67;;;16.08;;
46597;SDS011;32318;48.858;8.252;2024-01-30T19:22:51;29.20;;;13.05;;
46597;SDS011;32318;48.858;8.252;2024-01-30T19:30:52;40.60;;;18.73;;
46597;SDS011;32318;48.858;8.252;2024-01-30T19:39:07;45.37;;;18.87;;
46597;SDS011;32318;48.858;8.252;2024-01-30T19:56:29;40.90;;;18.52;;
46597;SDS011;32318;48.858;8.252;2024-01-30T20:13:16;41.30;;;17.00;;
46597;SDS011;32318;48.858;8.252;2024-01-30T20:30:36;28.20;;;13.25;;
46597;SDS011;32318;48.858;8.252;2024-01-30T20:38:41;27.70;;;13.10;;
46597;SDS011;32318;48.858;8.252;2024-01-30T20:46:48;30.90;;;12.65;;
46597;SDS011;32318;48.858;8.252;2024-01-30T20:54:48;27.40;;;11.90;;
46597;SDS011;32318;48.858;8.252;2024-01-30T21:02:49;31.50;;;14.23;;
46597;SDS011;32318;48.858;8.252;2024-01-30T21:10:49;35.67;;;14.57;;
46597;SDS011;32318;48.858;8.252;2024-01-30T21:18:49;30.10;;;14.50;;
46597;SDS011;32318;48.858;8.252;2024-01-30T21:26:50;32.95;;;15.07;;
46597;SDS011;32318;48.858;8.252;2024-01-30T21:34:51;37.72;;;15.52;;
46597;SDS011;32318;48.858;8.252;2024-01-30T21:42:51;37.88;;;15.70;;
46597;SDS011;32318;48.858;8.252;2024-01-30T21:50:51;33.08;;;15.88;;
46597;SDS011;32318;48.858;8.252;2024-01-30T21:58:52;34.63;;;14.80;;
46597;SDS011;32318;48.858;8.252;2024-01-30T22:06:52;34.92;;;15.50;;
46597;SDS011;32318;48.858;8.252;2024-01-30T22:14:52;34.30;;;16.33;;
46597;SDS011;32318;48.858;8.252;2024-01-30T22:22:52;33.60;;;15.75;;
46597;SDS011;32318;48.858;8.252;2024-01-30T22:30:53;37.53;;;15.98;;
46597;SDS011;32318;48.858;8.252;2024-01-30T22:38:54;36.50;;;16.92;;
46597;SDS011;32318;48.858;8.252;2024-01-30T22:46:55;34.35;;;16.15;;
46597;SDS011;32318;48.858;8.252;2024-01-30T22:54:55;36.92;;;16.15;;
46597;SDS011;32318;48.858;8.252;2024-01-30T23:02:57;37.90;;;17.60;;
46597;SDS011;32318;48.858;8.252;2024-01-30T23:10:57;40.58;;;17.35;;
46597;SDS011;32318;48.858;8.252;2024-01-30T23:18:57;40.58;;;19.05;;
46597;SDS011;32318;48.858;8.252;2024-01-30T23:26:58;40.58;;;17.98;;
46597;SDS011;32318;48.858;8.252;2024-01-30T23:34:58;43.35;;;17.00;;
46597;SDS011;32318;48.858;8.252;2024-01-30T23:42:58;39.22;;;16.55;;
46597;SDS011;32318;48.858;8.252;2024-01-30T23:50:58;33.45;;;15.25;;
46597;SDS011;32318;48.858;8.252;2024-01-30T23:58:59;29.00;;;14.75;;
